Time;durP1;ratioP1;P1;durP2;ratioP2;P2;SDS_P1;SDS_P2;PMS_P1;PMS_P2;Temp;Humidity;BMP_temperature;BMP_pressure;BME280_temperature;BME280_humidity;BME280_pressure;Samples;Min_cycle;Max_cycle;Signal;HPM_P1;HPM_P2
2021/12/07 00:00:13;;;;;;;6.38;1.30;;;23.50;64.00;;;;;;4128110;28;20457;-57
2021/12/07 00:02:15;;;;;;;2.88;1.10;;;23.50;64.00;;;;;;4127671;28;20053;-53
2021/12/07 00:04:18;;;;;;;3.38;1.10;;;23.50;64.00;;;;;;4128968;28;20052;-53
2021/12/07 00:06:20;;;;;;;2.42;1.00;;;23.50;64.00;;;;;;4136481;28;20068;-52
2021/12/07 00:08:22;;;;;;;5.22;0.90;;;23.60;64.20;;;;;;4127582;28;20678;-54
2021/12/07 00:10:24;;;;;;;2.60;0.88;;;23.60;64.30;;;;;;4127863;28;20048;-51
2021/12/07 00:12:34;;;;;;;1.00;0.73;;;23.60;64.30;;;;;;4135980;28;20053;-55
2021/12/07 00:14:41;;;;;;;3.40;0.90;;;23.60;64.30;;;;;;4137890;28;20188;-54
2021/12/07 00:16:45;;;;;;;2.08;0.70;;;23.60;64.30;;;;;;4136958;28;20140;-51
2021/12/07 00:18:48;;;;;;;2.00;1.00;;;23.60;64.40;;;;;;4131774;28;20076;-50
2021/12/07 00:20:51;;;;;;;2.88;1.10;;;23.70;64.50;;;;;;4131748;28;20048;-49
2021/12/07 00:22:58;;;;;;;3.75;1.10;;;23.70;64.40;;;;;;4138650;28;20076;-55
2021/12/07 00:25:01;;;;;;;2.97;0.80;;;23.70;64.30;;;;;;4139885;28;20067;-47
2021/12/07 00:27:03;;;;;;;2.08;1.10;;;23.70;64.40;;;;;;4131986;28;20084;-49
2021/12/07 00:29:07;;;;;;;3.35;0.60;;;23.80;64.60;;;;;;4130037;28;20041;-48
2021/12/07 00:31:20;;;;;;;2.38;0.80;;;23.80;64.60;;;;;;4129064;28;20081;-53
2021/12/07 00:35:34;;;;;;;0.88;0.68;;;23.80;64.60;;;;;;4136499;28;20136;-51
2021/12/07 00:37:38;;;;;;;2.45;0.90;;;23.80;64.50;;;;;;4135319;28;20120;-52
2021/12/07 00:39:40;;;;;;;1.35;0.82;;;23.80;64.60;;;;;;4129016;28;20802;-50
2021/12/07 00:41:43;;;;;;;1.35;0.73;;;23.90;64.60;;;;;;4125768;28;20175;-51
2021/12/07 00:43:45;;;;;;;2.30;0.90;;;23.90;64.60;;;;;;4130522;28;20060;-55
2021/12/07 00:45:49;;;;;;;0.85;0.65;;;23.90;64.60;;;;;;4134039;28;20053;-53
2021/12/07 00:47:54;;;;;;;1.90;0.63;;;24.00;64.70;;;;;;4126109;28;20051;-53
2021/12/07 00:49:56;;;;;;;2.40;0.75;;;23.90;64.60;;;;;;4125671;28;20057;-52
2021/12/07 00:51:58;;;;;;;4.78;1.00;;;24.00;64.60;;;;;;4148865;28;20052;-53
2021/12/07 00:54:01;;;;;;;1.90;0.63;;;24.00;64.60;;;;;;4131627;28;20565;-54
2021/12/07 00:56:05;;;;;;;1.75;0.90;;;24.00;64.60;;;;;;4124767;28;20060;-53
2021/12/07 00:58:17;;;;;;;2.40;0.68;;;24.00;64.70;;;;;;4124127;28;20160;-54
2021/12/07 01:02:14;;;;;;;5.38;0.95;;;24.10;64.40;;;;;;4218796;27;20440;-55
2021/12/07 01:04:16;;;;;;;3.67;0.90;;;24.10;64.90;;;;;;4212891;27;20050;-49
2021/12/07 01:06:31;;;;;;;2.40;1.00;;;24.10;64.90;;;;;;4210064;27;20082;-52
2021/12/07 01:25:07;;;;;;;1.75;0.80;;;24.30;65.10;;;;;;4207253;27;20129;-55
2021/12/07 01:27:16;;;;;;;1.70;0.90;;;24.30;65.00;;;;;;4209757;27;20057;-54
2021/12/07 01:29:22;;;;;;;3.05;0.80;;;24.30;65.10;;;;;;4208118;27;20066;-54
2021/12/07 01:31:41;;;;;;;6.30;0.70;;;24.30;65.20;;;;;;4216869;27;20089;-54
2021/12/07 01:38:25;;;;;;;2.63;0.85;;;24.40;65.30;;;;;;4217833;27;20043;-49
2021/12/07 01:50:16;;;;;;;3.15;0.73;;;24.60;65.40;;;;;;4213469;27;19927;-51
2021/12/07 02:05:55;;;;;;;3.60;1.02;;;24.80;65.30;;;;;;4209401;27;20051;-51
2021/12/07 02:15:54;;;;;;;3.50;0.85;;;24.80;65.20;;;;;;4189090;28;20108;-52
2021/12/07 02:17:57;;;;;;;1.17;0.50;;;24.90;65.40;;;;;;4199432;28;20050;-48
2021/12/07 02:19:59;;;;;;;2.53;1.25;;;24.90;65.40;;;;;;4178196;28;20049;-54
2021/12/07 02:22:10;;;;;;;0.95;0.70;;;24.90;65.40;;;;;;4193063;28;20473;-50
2021/12/07 02:24:12;;;;;;;1.60;0.90;;;25.00;65.40;;;;;;4190535;28;20154;-53
2021/12/07 02:26:15;;;;;;;4.68;0.80;;;25.00;65.40;;;;;;4197326;28;20051;-54
2021/12/07 02:28:17;;;;;;;4.25;0.80;;;25.00;65.30;;;;;;4194477;28;20070;-53
2021/12/07 02:30:22;;;;;;;3.20;0.95;;;25.00;64.70;;;;;;4191628;28;20589;-50
2021/12/07 02:32:24;;;;;;;2.35;0.95;;;25.10;65.20;;;;;;4191687;28;20103;-53
2021/12/07 02:34:26;;;;;;;3.00;0.80;;;25.10;65.20;;;;;;4197690;28;20103;-48
2021/12/07 02:36:29;;;;;;;1.35;1.02;;;25.10;65.20;;;;;;4194291;28;21053;-53
2021/12/07 02:38:31;;;;;;;8.10;1.50;;;25.10;64.60;;;;;;4190961;28;20158;-50
2021/12/07 02:40:33;;;;;;;2.63;0.80;;;25.10;65.20;;;;;;4192889;28;20481;-55
2021/12/07 02:42:35;;;;;;;2.10;0.80;;;25.20;65.30;;;;;;4197855;28;20909;-53
2021/12/07 02:44:38;;;;;;;2.30;1.00;;;25.20;65.20;;;;;;4194953;27;21551;-53
2021/12/07 02:46:40;;;;;;;6.43;1.20;;;25.20;65.20;;;;;;4190817;28;20135;-52
2021/12/07 02:48:43;;;;;;;1.05;0.77;;;25.30;65.20;;;;;;4197401;28;20040;-55
2021/12/07 02:50:46;;;;;;;1.10;0.82;;;25.30;65.10;;;;;;4194959;28;20055;-54
2021/12/07 02:52:48;;;;;;;1.65;0.85;;;25.30;65.00;;;;;;4191117;28;20048;-52
2021/12/07 02:54:51;;;;;;;3.97;1.10;;;25.40;65.10;;;;;;4190337;28;20510;-52
2021/12/07 02:56:53;;;;;;;14.35;1.55;;;25.40;65.10;;;;;;4198987;28;20071;-48
2021/12/07 02:59:00;;;;;;;1.02;0.90;;;25.40;65.00;;;;;;4190683;28;21879;-52
2021/12/07 03:01:13;;;;;;;1.00;0.68;;;25.40;65.00;;;;;;4191509;28;20401;-53
2021/12/07 03:03:16;;;;;;;2.55;0.95;;;25.50;65.00;;;;;;4189728;28;20475;-54
2021/12/07 03:07:52;;;;;;;1.15;0.98;;;25.50;64.90;;;;;;4176886;28;20165;-50
2021/12/07 03:26:05;;;;;;;1.40;1.05;;;25.80;64.00;;;;;;4194757;28;20047;-55
2021/12/07 03:28:08;;;;;;;1.42;1.10;;;25.80;63.60;;;;;;4197548;27;20047;-52
2021/12/07 03:30:11;;;;;;;1.40;1.10;;;25.80;63.40;;;;;;4177918;28;21285;-52
2021/12/07 03:32:13;;;;;;;1.70;1.00;;;25.80;64.20;;;;;;4180394;28;20051;-52
2021/12/07 03:34:15;;;;;;;5.57;1.23;;;25.90;64.50;;;;;;4187438;28;20089;-51
2021/12/07 03:36:17;;;;;;;1.98;1.27;;;25.90;64.80;;;;;;4191500;28;20217;-50
2021/12/07 03:38:19;;;;;;;1.17;1.00;;;26.00;65.40;;;;;;4183520;28;20043;-51
2021/12/07 03:40:22;;;;;;;1.50;1.00;;;26.10;65.00;;;;;;4184851;28;20521;-54
2021/12/07 03:42:25;;;;;;;2.38;1.00;;;26.10;64.70;;;;;;4174845;28;20087;-52
2021/12/07 03:44:27;;;;;;;1.13;0.82;;;26.10;64.60;;;;;;4188083;28;21704;-54
2021/12/07 03:46:29;;;;;;;4.25;0.90;;;26.20;64.60;;;;;;4183249;28;20056;-53
2021/12/07 03:48:31;;;;;;;1.10;0.77;;;26.20;64.60;;;;;;4186106;28;20047;-48
2021/12/07 03:50:34;;;;;;;2.80;0.93;;;26.30;64.50;;;;;;4187540;28;20048;-51
2021/12/07 03:52:37;;;;;;;1.45;0.77;;;26.40;64.50;;;;;;4184640;28;20070;-51
2021/12/07 03:54:39;;;;;;;4.47;1.13;;;26.40;64.50;;;;;;4186065;28;20124;-51
2021/12/07 03:56:41;;;;;;;1.95;0.90;;;26.40;64.40;;;;;;4189021;28;20055;-53
2021/12/07 03:58:43;;;;;;;1.55;0.93;;;26.50;64.50;;;;;;4189891;28;20523;-50
2021/12/07 04:02:12;;;;;;;1.33;1.00;;;26.60;63.80;;;;;;4181929;27;20959;-48
2021/12/07 04:04:15;;;;;;;1.00;0.70;;;26.60;64.30;;;;;;4190032;28;20109;-50
2021/12/07 04:06:18;;;;;;;;;;;26.60;64.30;;;;;;4183435;28;20166;-57
2021/12/07 04:08:23;;;;;;;2.92;0.85;;;26.60;64.30;;;;;;4183249;28;19928;-51
2021/12/07 04:10:25;;;;;;;6.00;0.98;;;26.70;64.30;;;;;;4184520;28;20074;-53
2021/12/07 04:12:28;;;;;;;7.90;1.23;;;26.70;64.30;;;;;;4191182;28;20051;-48
2021/12/07 04:14:30;;;;;;;9.77;1.07;;;26.70;64.30;;;;;;4184678;28;20073;-49
2021/12/07 04:16:32;;;;;;;6.60;1.27;;;26.70;64.30;;;;;;4188517;28;20836;-46
2021/12/07 04:18:35;;;;;;;6.85;1.20;;;26.80;64.40;;;;;;4191459;28;20063;-50
2021/12/07 04:20:38;;;;;;;9.07;1.42;;;26.80;64.40;;;;;;4187025;28;20052;-47
2021/12/07 04:22:40;;;;;;;5.18;1.10;;;26.80;64.20;;;;;;4187666;28;20054;-48
2021/12/07 04:24:42;;;;;;;1.80;0.80;;;26.80;64.10;;;;;;4190418;28;20518;-54
2021/12/07 04:26:44;;;;;;;4.83;0.63;;;26.80;64.00;;;;;;4194955;28;20071;-50
2021/12/07 04:28:47;;;;;;;3.70;0.70;;;26.80;64.10;;;;;;4191149;28;20326;-50
2021/12/07 04:30:49;;;;;;;7.18;1.38;;;26.80;64.00;;;;;;4187454;28;20364;-51
2021/12/07 04:32:52;;;;;;;2.53;0.70;;;26.90;64.00;;;;;;4196114;28;20055;-53
2021/12/07 04:34:54;;;;;;;2.28;0.90;;;26.80;63.90;;;;;;4191240;28;20079;-53
2021/12/07 04:36:57;;;;;;;1.50;0.88;;;26.90;64.00;;;;;;4182259;28;20052;-52
2021/12/07 04:38:59;;;;;;;2.30;0.93;;;26.90;64.60;;;;;;4181221;28;20060;-55
2021/12/07 04:41:01;;;;;;;2.15;0.93;;;26.90;64.10;;;;;;4188200;28;20526;-52
2021/12/07 04:43:05;;;;;;;2.00;0.90;;;26.90;64.10;;;;;;4182777;28;21596;-54
2021/12/07 04:45:11;;;;;;;1.58;0.70;;;26.90;64.20;;;;;;4183182;28;20052;-55
2021/12/07 04:47:21;;;;;;;2.17;0.80;;;26.90;64.10;;;;;;4182506;28;20738;-54
2021/12/07 04:49:52;;;;;;;4.32;1.60;;;26.90;64.10;;;;;;4180425;28;20135;-55
2021/12/07 04:58:51;;;;;;;1.83;0.95;;;27.00;63.50;;;;;;4136581;28;20223;-56
2021/12/07 05:00:54;;;;;;;3.40;1.10;;;27.00;63.10;;;;;;4151656;28;20497;-51
2021/12/07 05:03:01;;;;;;;1.98;1.08;;;27.00;63.80;;;;;;4163385;28;21284;-54
2021/12/07 05:05:04;;;;;;;1.70;1.23;;;27.00;63.90;;;;;;4157692;28;20055;-52
2021/12/07 05:07:16;;;;;;;2.17;0.90;;;27.00;63.80;;;;;;4152120;28;20914;-55
2021/12/07 05:09:51;;;;;;;1.38;0.80;;;27.00;63.90;;;;;;4151340;28;20236;-51
2021/12/07 05:12:05;;;;;;;3.63;1.20;;;27.10;64.00;;;;;;4155047;28;20059;-56
2021/12/07 05:14:17;;;;;;;1.88;0.77;;;27.20;63.90;;;;;;4139606;28;20823;-53
2021/12/07 05:39:39;;;;;;;0.55;0.55;;;27.60;63.60;;;;;;4149241;28;20731;-52
2021/12/07 05:41:41;;;;;;;0.93;0.73;;;27.60;63.60;;;;;;4141242;28;20086;-54
2021/12/07 05:43:43;;;;;;;1.90;0.90;;;27.70;63.60;;;;;;4138754;28;20048;-55
2021/12/07 05:45:45;;;;;;;0.75;0.55;;;27.70;63.50;;;;;;4152452;28;20120;-53
2021/12/07 05:47:49;;;;;;;0.85;0.60;;;27.70;63.50;;;;;;4147087;28;20060;-54
2021/12/07 05:49:50;;;;;;;;;;;27.80;63.50;;;;;;4144508;28;20874;-53
2021/12/07 05:51:52;;;;;;;3.58;0.80;;;27.80;63.40;;;;;;4141994;28;20200;-49
2021/12/07 05:53:54;;;;;;;1.92;0.90;;;27.80;63.30;;;;;;4151647;28;20056;-53
2021/12/07 05:55:57;;;;;;;1.90;0.63;;;27.80;63.30;;;;;;4140056;28;20154;-57
2021/12/07 05:57:59;;;;;;;0.93;0.70;;;27.80;63.30;;;;;;4144852;28;20102;-57
2021/12/07 06:00:03;;;;;;;2.22;0.70;;;27.80;63.30;;;;;;4148402;28;20075;-56
2021/12/07 06:02:05;;;;;;;1.33;0.70;;;27.90;63.40;;;;;;4151196;28;20067;-55
2021/12/07 06:04:07;;;;;;;1.73;0.70;;;27.90;63.30;;;;;;4141573;28;20052;-54
2021/12/07 06:06:09;;;;;;;2.07;0.70;;;27.80;63.70;;;;;;4144873;28;20064;-54
2021/12/07 06:08:11;;;;;;;0.77;0.70;;;27.90;63.10;;;;;;4150965;28;20373;-54
2021/12/07 06:10:14;;;;;;;2.70;0.77;;;27.90;63.10;;;;;;4145771;28;20797;-55
2021/12/07 06:12:16;;;;;;;2.00;0.80;;;27.90;63.00;;;;;;4142290;28;20072;-56
2021/12/07 06:14:20;;;;;;;2.13;0.68;;;27.90;63.10;;;;;;4147024;28;20181;-56
2021/12/07 06:16:24;;;;;;;1.25;0.65;;;27.90;63.10;;;;;;4152070;28;20049;-54
2021/12/07 06:18:26;;;;;;;3.40;0.90;;;27.90;63.10;;;;;;4144674;28;20076;-52
2021/12/07 06:20:28;;;;;;;3.70;1.17;;;27.90;63.10;;;;;;4141946;28;20052;-57
2021/12/07 06:22:30;;;;;;;3.72;1.10;;;27.80;63.10;;;;;;4149684;28;20052;-57
2021/12/07 06:24:36;;;;;;;2.77;0.87;;;27.80;63.10;;;;;;4150338;28;21506;-51
2021/12/07 06:26:41;;;;;;;1.42;0.80;;;27.80;63.10;;;;;;4144244;28;22126;-54
2021/12/07 06:28:44;;;;;;;0.85;0.63;;;27.80;63.20;;;;;;4145575;28;20143;-57
2021/12/07 06:30:47;;;;;;;0.87;0.60;;;27.80;63.20;;;;;;4144688;28;20062;-56
2021/12/07 06:32:50;;;;;;;1.40;0.80;;;27.80;63.60;;;;;;4152681;28;20143;-53
2021/12/07 06:34:52;;;;;;;3.97;1.10;;;27.80;63.30;;;;;;4144050;28;21216;-56
2021/12/07 06:36:55;;;;;;;1.77;0.85;;;27.80;63.30;;;;;;4141659;28;20048;-55
2021/12/07 06:38:57;;;;;;;2.47;1.13;;;27.80;63.40;;;;;;4143807;28;20076;-57
2021/12/07 06:41:03;;;;;;;4.47;1.20;;;27.80;63.30;;;;;;4150001;28;20555;-56
2021/12/07 06:43:05;;;;;;;2.22;1.00;;;27.80;63.40;;;;;;4142080;28;20911;-52
2021/12/07 06:45:10;;;;;;;1.35;0.98;;;27.80;63.50;;;;;;4138109;28;20051;-57
2021/12/07 06:47:12;;;;;;;1.75;1.17;;;27.80;63.60;;;;;;4141745;28;20049;-56
2021/12/07 06:49:16;;;;;;;3.63;1.23;;;27.80;63.70;;;;;;4149209;28;20060;-54
2021/12/07 06:51:18;;;;;;;2.42;1.30;;;27.80;64.50;;;;;;4141858;28;21789;-58
2021/12/07 06:53:21;;;;;;;2.67;1.13;;;27.80;63.90;;;;;;4142641;28;20052;-54
2021/12/07 06:55:23;;;;;;;3.15;1.00;;;27.80;64.00;;;;;;4144205;28;20542;-54
2021/12/07 06:57:26;;;;;;;2.15;0.75;;;27.80;64.10;;;;;;4147851;28;20048;-56
2021/12/07 06:59:28;;;;;;;;;;;27.80;64.20;;;;;;4141903;28;20072;-58
2021/12/07 07:02:11;;;;;;;1.58;1.02;;;27.80;63.50;;;;;;4165607;27;20439;-52
2021/12/07 07:04:14;;;;;;;2.73;1.07;;;27.80;64.10;;;;;;4167744;28;20105;-48
2021/12/07 07:06:17;;;;;;;1.40;0.93;;;27.80;64.10;;;;;;4175179;28;20048;-55
2021/12/07 07:08:20;;;;;;;1.92;0.65;;;27.80;64.10;;;;;;4170292;28;21280;-55
2021/12/07 07:10:22;;;;;;;1.60;1.20;;;27.90;64.30;;;;;;4168093;28;21232;-57
2021/12/07 07:12:24;;;;;;;3.43;1.20;;;27.80;64.20;;;;;;4169761;28;20075;-55
2021/12/07 07:14:27;;;;;;;1.77;0.88;;;27.90;64.40;;;;;;4176413;28;20044;-57
2021/12/07 07:16:29;;;;;;;1.93;0.93;;;27.80;64.40;;;;;;4167145;28;20146;-57
2021/12/07 07:18:34;;;;;;;3.42;0.98;;;27.90;64.50;;;;;;4169385;28;20048;-57
2021/12/07 07:20:37;;;;;;;2.60;1.05;;;27.90;64.40;;;;;;4172140;28;20633;-58
2021/12/07 07:22:40;;;;;;;1.60;0.70;;;27.90;64.30;;;;;;4177537;28;20519;-57
2021/12/07 07:24:43;;;;;;;1.25;0.60;;;27.90;64.10;;;;;;4168275;28;20056;-57
2021/12/07 07:26:44;;;;;;;;;;;27.90;63.90;;;;;;4168129;28;20092;-57
2021/12/07 07:28:47;;;;;;;1.73;0.80;;;27.90;63.80;;;;;;4177321;28;20107;-58
2021/12/07 07:30:49;;;;;;;1.23;0.68;;;27.90;63.70;;;;;;4170495;28;21959;-58
2021/12/07 07:32:51;;;;;;;2.28;0.90;;;27.90;63.60;;;;;;4168222;28;20059;-58
2021/12/07 07:34:54;;;;;;;2.33;1.03;;;27.90;63.50;;;;;;4167871;28;20059;-57
2021/12/07 07:36:56;;;;;;;2.50;0.93;;;27.90;63.50;;;;;;4174586;28;20106;-58
2021/12/07 07:38:58;;;;;;;1.27;0.90;;;27.90;63.40;;;;;;4169833;28;20322;-58
2021/12/07 07:41:01;;;;;;;1.20;0.80;;;27.90;63.30;;;;;;4168419;28;20649;-57
2021/12/07 07:43:03;;;;;;;;;;;27.90;63.30;;;;;;4156813;28;20300;-57
2021/12/07 07:45:06;;;;;;;1.85;1.30;;;27.80;63.20;;;;;;4169889;28;19935;-54
2021/12/07 07:47:08;;;;;;;3.97;1.55;;;27.90;63.30;;;;;;4167917;28;20081;-54
2021/12/07 07:49:11;;;;;;;2.67;1.30;;;27.80;63.30;;;;;;4164907;28;20146;-51
2021/12/07 07:51:13;;;;;;;3.05;1.58;;;27.80;63.20;;;;;;4173599;28;20880;-53
2021/12/07 07:53:15;;;;;;;3.55;1.55;;;27.80;63.30;;;;;;4160947;28;20048;-55
2021/12/07 07:55:18;;;;;;;2.63;1.33;;;27.80;63.30;;;;;;4148256;28;20135;-55
2021/12/07 07:57:20;;;;;;;3.35;1.60;;;27.80;63.40;;;;;;4158429;28;20048;-57
2021/12/07 07:59:22;;;;;;;3.38;1.52;;;27.80;63.50;;;;;;4154188;28;20163;-54
2021/12/07 08:01:28;;;;;;;2.20;1.45;;;27.80;63.40;;;;;;4150212;28;20511;-48
2021/12/07 08:03:31;;;;;;;2.72;1.67;;;27.80;63.50;;;;;;4149500;28;20767;-53
2021/12/07 08:05:33;;;;;;;6.97;2.33;;;27.80;63.50;;;;;;4158673;28;20166;-54
2021/12/07 08:07:35;;;;;;;2.33;1.73;;;27.80;63.50;;;;;;4150404;28;20534;-53
2021/12/07 08:09:37;;;;;;;3.37;1.70;;;27.80;63.60;;;;;;4151181;28;20052;-51
2021/12/07 08:11:40;;;;;;;3.35;1.65;;;27.80;63.60;;;;;;4152741;28;20149;-56
2021/12/07 08:13:42;;;;;;;3.97;1.85;;;27.80;63.60;;;;;;4148908;28;20139;-54
2021/12/07 08:15:46;;;;;;;2.42;1.70;;;27.80;63.70;;;;;;4139004;28;20082;-48
2021/12/07 08:17:48;;;;;;;2.72;1.40;;;27.80;64.10;;;;;;4139072;28;20053;-50
2021/12/07 08:19:51;;;;;;;3.33;1.70;;;27.80;63.20;;;;;;4143362;28;20056;-54
2021/12/07 08:21:53;;;;;;;2.85;2.03;;;27.80;63.30;;;;;;4147715;28;20412;-49
2021/12/07 08:23:55;;;;;;;2.95;1.58;;;27.80;63.20;;;;;;4140985;28;20132;-52
2021/12/07 08:25:57;;;;;;;3.97;1.50;;;27.80;63.10;;;;;;4144789;28;20073;-50
2021/12/07 08:27:59;;;;;;;2.53;1.40;;;27.80;63.10;;;;;;4155992;28;20064;-49
2021/12/07 08:30:04;;;;;;;2.22;1.50;;;27.80;63.10;;;;;;4133813;28;20660;-52
2021/12/07 08:32:06;;;;;;;4.15;1.70;;;27.80;62.90;;;;;;4148412;28;20116;-54
2021/12/07 08:34:09;;;;;;;4.47;1.92;;;27.80;62.90;;;;;;4149496;28;20126;-47
2021/12/07 08:36:11;;;;;;;2.95;1.75;;;27.80;62.90;;;;;;4156976;28;20136;-54
2021/12/07 08:38:13;;;;;;;2.75;1.83;;;27.80;62.90;;;;;;4145052;28;21701;-58
2021/12/07 08:40:20;;;;;;;4.07;2.10;;;27.80;63.00;;;;;;4140679;28;20052;-53
2021/12/07 08:42:23;;;;;;;4.13;1.80;;;27.80;63.00;;;;;;4143063;28;20084;-52
2021/12/07 08:44:25;;;;;;;3.45;1.92;;;27.80;63.10;;;;;;4149605;28;20457;-55
2021/12/07 08:46:27;;;;;;;3.93;1.90;;;27.80;63.00;;;;;;4139532;28;20168;-60
2021/12/07 08:48:30;;;;;;;2.35;1.67;;;27.80;63.00;;;;;;4139198;28;20047;-58
2021/12/07 08:50:34;;;;;;;2.83;1.88;;;27.80;63.00;;;;;;4143743;28;20088;-57
2021/12/07 08:52:36;;;;;;;3.35;1.90;;;27.70;62.90;;;;;;4146620;28;20068;-57
2021/12/07 09:01:27;;;;;;;3.22;1.92;;;27.80;63.10;;;;;;4151585;28;20064;-53
2021/12/07 09:03:29;;;;;;;3.35;2.03;;;27.80;63.10;;;;;;4143615;28;20449;-48
2021/12/07 09:05:31;;;;;;;4.03;1.85;;;27.80;63.00;;;;;;4140461;28;20087;-55
2021/12/07 09:07:34;;;;;;;2.23;1.57;;;27.70;63.10;;;;;;4140755;28;20630;-61
2021/12/07 09:09:42;;;;;;;;;;;27.70;63.20;;;;;;4149515;28;20061;-57
2021/12/07 09:11:46;;;;;;;5.15;2.10;;;27.70;63.30;;;;;;4144609;28;20012;-54
2021/12/07 09:13:48;;;;;;;8.10;1.95;;;27.70;63.60;;;;;;4141164;28;20615;-57
2021/12/07 09:15:55;;;;;;;8.32;1.92;;;27.70;63.90;;;;;;4139703;28;20076;-54
2021/12/07 09:17:58;;;;;;;4.25;1.77;;;27.80;64.20;;;;;;4143120;28;20055;-58
2021/12/07 09:20:00;;;;;;;10.23;1.58;;;27.80;64.30;;;;;;4141350;28;20053;-56
2021/12/07 09:22:03;;;;;;;4.15;1.50;;;27.70;64.90;;;;;;4137572;28;20117;-56
2021/12/07 09:24:06;;;;;;;2.55;1.50;;;27.70;64.40;;;;;;4135252;28;20045;-57
2021/12/07 09:26:10;;;;;;;3.15;1.73;;;27.70;64.40;;;;;;4144464;28;20080;-59
2021/12/07 09:28:13;;;;;;;3.05;1.55;;;27.80;64.50;;;;;;4145434;28;21687;-59
2021/12/07 09:30:17;;;;;;;2.47;1.23;;;27.70;64.40;;;;;;4138979;28;20059;-57
2021/12/07 09:32:20;;;;;;;2.78;1.42;;;27.80;64.60;;;;;;4141698;28;21198;-57
2021/12/07 09:34:22;;;;;;;2.17;1.38;;;27.80;64.60;;;;;;4145155;28;21289;-56
2021/12/07 09:36:25;;;;;;;2.55;1.40;;;27.80;64.50;;;;;;4137872;28;20141;-57
2021/12/07 09:38:27;;;;;;;2.58;1.10;;;27.80;64.60;;;;;;4136438;28;20172;-54
2021/12/07 09:40:30;;;;;;;2.17;1.33;;;27.80;64.70;;;;;;4135516;28;20045;-55
2021/12/07 09:42:32;;;;;;;1.98;1.20;;;27.80;64.70;;;;;;4144988;28;20049;-56
2021/12/07 09:44:34;;;;;;;2.63;1.10;;;27.80;64.60;;;;;;4138430;28;20067;-54
2021/12/07 09:46:37;;;;;;;1.93;1.10;;;27.80;64.60;;;;;;4138540;28;20075;-54
2021/12/07 09:48:41;;;;;;;1.90;1.10;;;27.80;64.70;;;;;;4142188;28;20053;-55
2021/12/07 09:50:50;;;;;;;2.50;1.00;;;27.80;65.40;;;;;;4147129;28;20072;-56
2021/12/07 09:52:53;;;;;;;1.67;1.20;;;27.90;64.70;;;;;;4141807;28;21082;-56
2021/12/07 09:54:56;;;;;;;2.08;1.10;;;27.80;64.70;;;;;;4134438;28;20057;-58
2021/12/07 09:56:59;;;;;;;1.33;0.73;;;27.90;64.70;;;;;;4137893;28;20068;-57
2021/12/07 09:59:03;;;;;;;1.20;0.82;;;27.90;64.80;;;;;;4147279;28;20063;-58
2021/12/07 10:02:12;;;;;;;1.05;0.80;;;27.90;64.20;;;;;;4175896;27;20457;-58
2021/12/07 10:04:14;;;;;;;1.08;0.90;;;27.80;64.80;;;;;;4169078;28;20153;-59
2021/12/07 10:06:17;;;;;;;1.98;0.85;;;27.90;64.80;;;;;;4167328;28;20222;-56
2021/12/07 10:08:19;;;;;;;1.60;1.00;;;27.90;64.80;;;;;;4157138;28;20044;-54
2021/12/07 10:10:32;;;;;;;1.95;1.20;;;27.90;64.90;;;;;;4167228;28;20518;-56
2021/12/07 10:12:36;;;;;;;1.38;0.90;;;27.90;64.70;;;;;;4150354;28;20048;-58
2021/12/07 10:14:43;;;;;;;1.77;1.00;;;27.90;64.80;;;;;;4166833;28;21691;-58
2021/12/07 10:16:48;;;;;;;1.30;0.80;;;27.90;64.80;;;;;;4167743;28;20904;-59
2021/12/07 10:18:51;;;;;;;4.07;1.27;;;27.90;64.80;;;;;;4172535;28;20059;-60
2021/12/07 10:20:54;;;;;;;;;;;27.90;64.90;;;;;;4177077;28;20055;-57
2021/12/07 10:22:56;;;;;;;1.10;1.00;;;27.90;64.80;;;;;;4165546;28;19928;-52
2021/12/07 10:24:59;;;;;;;1.85;1.02;;;27.90;64.90;;;;;;4163953;28;20142;-59
2021/12/07 10:27:01;;;;;;;;;;;27.90;64.80;;;;;;4171746;28;20051;-58
2021/12/07 10:29:13;;;;;;;1.48;0.80;;;27.90;64.70;;;;;;4173299;28;20888;-59
2021/12/07 10:31:20;;;;;;;1.33;0.93;;;27.90;64.70;;;;;;4154304;28;20059;-56
2021/12/07 10:33:35;;;;;;;2.17;0.90;;;27.90;64.70;;;;;;4154492;28;20558;-58
2021/12/07 10:35:38;;;;;;;1.10;0.80;;;27.90;64.70;;;;;;4152786;28;20167;-60
2021/12/07 10:37:40;;;;;;;1.65;0.85;;;27.90;64.80;;;;;;4165413;28;20458;-57
2021/12/07 10:39:49;;;;;;;1.45;1.00;;;27.90;64.80;;;;;;4156452;28;20508;-57
2021/12/07 10:42:12;;;;;;;2.17;1.00;;;27.90;64.70;;;;;;4165263;28;20698;-58
2021/12/07 10:44:38;;;;;;;1.75;1.02;;;27.90;64.70;;;;;;4165796;28;21542;-52
2021/12/07 10:47:01;;;;;;;1.85;1.05;;;27.90;64.70;;;;;;4149581;28;20056;-59
2021/12/07 10:49:22;;;;;;;1.73;1.10;;;27.90;64.70;;;;;;4147497;28;20201;-57
2021/12/07 10:51:24;;;;;;;0.80;0.70;;;27.90;64.80;;;;;;4156407;28;20525;-58
2021/12/07 10:53:36;;;;;;;1.42;0.90;;;27.90;64.80;;;;;;4162349;28;20055;-53
2021/12/07 10:55:41;;;;;;;1.23;0.82;;;27.90;64.70;;;;;;4149793;28;20683;-57
2021/12/07 10:57:52;;;;;;;1.50;0.95;;;27.90;64.60;;;;;;4149274;28;20052;-56
2021/12/07 11:00:04;;;;;;;2.00;1.08;;;27.90;64.60;;;;;;4148588;28;20194;-57
2021/12/07 11:02:18;;;;;;;1.13;0.90;;;27.90;64.70;;;;;;4150032;28;20052;-58
2021/12/07 11:04:33;;;;;;;2.28;1.17;;;28.00;64.60;;;;;;4135800;28;21578;-54
2021/12/07 11:07:13;;;;;;;1.00;0.70;;;27.90;64.50;;;;;;4159960;28;20049;-57
2021/12/07 11:09:15;;;;;;;1.10;0.70;;;27.90;64.60;;;;;;4160668;28;20052;-55
2021/12/07 11:11:28;;;;;;;1.10;0.80;;;27.90;64.70;;;;;;4132124;28;20067;-58
2021/12/07 11:13:40;;;;;;;1.80;1.10;;;27.90;64.20;;;;;;4141999;28;20400;-58
2021/12/07 11:15:53;;;;;;;0.85;0.68;;;27.90;64.10;;;;;;4145386;28;20057;-58
2021/12/07 11:18:00;;;;;;;2.08;1.05;;;27.90;64.60;;;;;;4128334;28;20080;-58
2021/12/07 11:20:05;;;;;;;1.33;0.90;;;27.90;64.70;;;;;;4145530;28;20052;-56
2021/12/07 11:22:07;;;;;;;2.38;1.10;;;27.90;64.60;;;;;;4139543;28;20205;-57
2021/12/07 11:24:09;;;;;;;1.48;0.80;;;27.90;64.60;;;;;;4139557;28;20087;-57
2021/12/07 11:30:54;;;;;;;2.33;1.15;;;27.90;64.50;;;;;;4144529;28;20744;-56
2021/12/07 11:32:59;;;;;;;1.38;0.90;;;27.90;64.40;;;;;;4139732;28;20084;-55
2021/12/07 11:35:19;;;;;;;1.73;1.10;;;27.90;65.10;;;;;;4141237;28;20512;-56
2021/12/07 11:37:22;;;;;;;1.83;0.90;;;28.00;64.50;;;;;;4144555;28;20059;-58
2021/12/07 11:39:24;;;;;;;;;;;28.00;64.40;;;;;;4122891;28;20067;-56
2021/12/07 11:41:32;;;;;;;1.75;1.10;;;28.00;64.40;;;;;;4141932;28;20010;-56
2021/12/07 11:43:48;;;;;;;1.30;0.90;;;28.00;64.30;;;;;;4124110;28;21130;-54
2021/12/07 11:45:51;;;;;;;1.20;0.80;;;27.90;64.20;;;;;;4139840;28;20064;-53
2021/12/07 11:48:01;;;;;;;1.38;0.88;;;27.90;64.20;;;;;;4122963;28;20049;-55
2021/12/07 11:50:24;;;;;;;1.92;1.13;;;28.00;64.20;;;;;;4122305;28;20081;-56
2021/12/07 11:52:26;;;;;;;1.25;0.90;;;28.00;64.20;;;;;;4143544;28;20751;-55
2021/12/07 11:54:33;;;;;;;1.70;1.00;;;28.00;64.20;;;;;;4139046;28;20080;-57
2021/12/07 11:56:35;;;;;;;1.58;1.10;;;28.00;64.20;;;;;;4143244;28;20052;-59
2021/12/07 11:58:37;;;;;;;1.05;0.60;;;28.00;64.20;;;;;;4146693;28;20060;-58
2021/12/07 12:00:45;;;;;;;1.07;0.90;;;28.00;64.00;;;;;;4110681;28;22195;-56
2021/12/07 12:02:47;;;;;;;1.83;1.00;;;28.00;64.00;;;;;;4125228;28;21002;-59
2021/12/07 12:04:50;;;;;;;1.27;0.93;;;28.00;64.10;;;;;;4136103;28;20057;-60
2021/12/07 12:06:55;;;;;;;1.63;1.10;;;28.00;64.10;;;;;;4144127;28;20049;-55
2021/12/07 12:08:59;;;;;;;1.20;1.00;;;28.00;64.00;;;;;;4145753;28;20179;-60
2021/12/07 12:11:14;;;;;;;2.70;1.05;;;28.00;64.00;;;;;;4132433;28;20211;-56
2021/12/07 12:13:22;;;;;;;1.67;0.93;;;28.00;64.10;;;;;;4148725;28;21224;-57
2021/12/07 12:15:47;;;;;;;1.27;0.82;;;28.00;64.10;;;;;;4152438;28;20106;-59
2021/12/07 12:17:58;;;;;;;1.52;1.02;;;28.00;64.20;;;;;;4143051;28;20098;-58
2021/12/07 12:20:35;;;;;;;0.93;0.82;;;28.00;64.20;;;;;;4141440;28;20927;-58
2021/12/07 12:23:02;;;;;;;2.28;1.02;;;28.00;64.20;;;;;;4126793;28;20133;-56
2021/12/07 12:25:10;;;;;;;1.80;1.10;;;28.00;64.00;;;;;;4145341;28;20139;-59
2021/12/07 12:27:25;;;;;;;1.48;1.10;;;28.00;64.10;;;;;;4132612;28;20063;-58
2021/12/07 12:29:29;;;;;;;1.63;1.00;;;28.00;64.10;;;;;;4152403;28;20052;-56
2021/12/07 12:31:49;;;;;;;1.58;1.02;;;28.00;64.10;;;;;;4150795;28;20175;-60
2021/12/07 12:33:56;;;;;;;1.70;0.90;;;27.90;64.10;;;;;;4149872;28;20052;-60
2021/12/07 12:35:59;;;;;;;2.45;1.15;;;27.90;64.00;;;;;;4153415;28;20079;-60
2021/12/07 12:38:02;;;;;;;1.63;1.10;;;27.90;64.10;;;;;;4154613;28;20120;-58
2021/12/07 12:40:28;;;;;;;1.05;0.80;;;27.90;64.00;;;;;;4148895;28;20055;-57
2021/12/07 12:42:44;;;;;;;1.48;0.77;;;27.90;64.00;;;;;;4156328;28;20171;-59
2021/12/07 12:44:48;;;;;;;0.93;0.93;;;27.90;64.00;;;;;;4148507;28;20080;-59
2021/12/07 12:46:59;;;;;;;2.42;1.08;;;27.80;64.00;;;;;;4132661;28;20160;-59
2021/12/07 12:49:06;;;;;;;0.75;0.75;;;27.80;64.00;;;;;;4143069;28;20518;-60
2021/12/07 12:51:09;;;;;;;1.73;0.82;;;27.80;64.00;;;;;;4149121;28;20167;-58